sensor_id;sensor_type;location;lat;lon;timestamp;pressure;altitude;pressure_sealevel;temperature;humidity
76260;BME280;65076;52.362;6.588;2023-07-08T00:00:27;101845.19;;;21.05;53.29
76260;BME280;65076;52.362;6.588;2023-07-08T00:02:55;101845.69;;;20.87;54.06
76260;BME280;65076;52.362;6.588;2023-07-08T00:05:25;101836.59;;;20.73;54.23
76260;BME280;65076;52.362;6.588;2023-07-08T00:07:53;101836.66;;;20.85;53.93
76260;BME280;65076;52.362;6.588;2023-07-08T00:10:25;101839.50;;;20.96;53.71
76260;BME280;65076;52.362;6.588;2023-07-08T00:12:56;101833.84;;;20.73;54.11
76260;BME280;65076;52.362;6.588;2023-07-08T00:15:27;101831.72;;;20.53;55.55
76260;BME280;65076;52.362;6.588;2023-07-08T00:17:58;101825.13;;;20.80;54.24
76260;BME280;65076;52.362;6.588;2023-07-08T00:20:32;101826.72;;;20.71;54.25
76260;BME280;65076;52.362;6.588;2023-07-08T00:23:03;101823.28;;;20.67;54.36
76260;BME280;65076;52.362;6.588;2023-07-08T00:25:32;101814.75;;;20.59;54.31
76260;BME280;65076;52.362;6.588;2023-07-08T00:28:01;101816.94;;;20.67;54.37
76260;BME280;65076;52.362;6.588;2023-07-08T00:30:30;101822.91;;;20.61;54.61
76260;BME280;65076;52.362;6.588;2023-07-08T00:33:00;101827.25;;;20.40;54.82
76260;BME280;65076;52.362;6.588;2023-07-08T00:35:30;101820.81;;;20.52;54.82
76260;BME280;65076;52.362;6.588;2023-07-08T00:38:02;101822.56;;;20.53;54.88
76260;BME280;65076;52.362;6.588;2023-07-08T00:40:51;101832.16;;;20.47;54.85
76260;BME280;65076;52.362;6.588;2023-07-08T00:43:24;101819.19;;;20.49;54.11
76260;BME280;65076;52.362;6.588;2023-07-08T00:46:08;101817.25;;;20.62;54.24
76260;BME280;65076;52.362;6.588;2023-07-08T00:48:49;101824.00;;;20.58;54.14
76260;BME280;65076;52.362;6.588;2023-07-08T00:51:20;101813.19;;;20.68;53.78
76260;BME280;65076;52.362;6.588;2023-07-08T00:53:50;101808.19;;;20.37;54.27
76260;BME280;65076;52.362;6.588;2023-07-08T00:56:24;101805.78;;;20.45;54.26
76260;BME280;65076;52.362;6.588;2023-07-08T00:58:57;101803.13;;;20.56;53.99
76260;BME280;65076;52.362;6.588;2023-07-08T01:01:29;101806.47;;;20.36;54.36
76260;BME280;65076;52.362;6.588;2023-07-08T01:04:04;101799.50;;;20.43;54.37
76260;BME280;65076;52.362;6.588;2023-07-08T01:06:40;101799.50;;;20.55;53.69
76260;BME280;65076;52.362;6.588;2023-07-08T01:09:13;101804.13;;;20.29;54.40
76260;BME280;65076;52.362;6.588;2023-07-08T01:11:44;101795.22;;;20.26;54.29
76260;BME280;65076;52.362;6.588;2023-07-08T01:14:14;101787.00;;;20.39;53.98
76260;BME280;65076;52.362;6.588;2023-07-08T01:16:47;101786.53;;;20.45;53.86
76260;BME280;65076;52.362;6.588;2023-07-08T01:19:19;101786.22;;;20.37;53.97
76260;BME280;65076;52.362;6.588;2023-07-08T01:22:00;101793.47;;;20.38;53.96
76260;BME280;65076;52.362;6.588;2023-07-08T01:24:30;101789.47;;;20.54;53.71
76260;BME280;65076;52.362;6.588;2023-07-08T01:27:02;101781.59;;;20.37;54.06
76260;BME280;65076;52.362;6.588;2023-07-08T01:29:33;101781.06;;;20.32;54.34
76260;BME280;65076;52.362;6.588;2023-07-08T01:32:01;101776.75;;;20.28;54.34
76260;BME280;65076;52.362;6.588;2023-07-08T01:34:30;101783.00;;;20.43;53.46
76260;BME280;65076;52.362;6.588;2023-07-08T01:37:03;101783.97;;;20.54;53.87
76260;BME280;65076;52.362;6.588;2023-07-08T01:39:33;101795.69;;;20.33;53.84
76260;BME280;65076;52.362;6.588;2023-07-08T01:42:01;101774.78;;;20.30;54.07
76260;BME280;65076;52.362;6.588;2023-07-08T01:44:31;101777.63;;;20.28;54.26
76260;BME280;65076;52.362;6.588;2023-07-08T01:47:05;101782.72;;;20.35;54.06
76260;BME280;65076;52.362;6.588;2023-07-08T01:49:39;101776.75;;;20.28;53.86
76260;BME280;65076;52.362;6.588;2023-07-08T01:52:11;101776.22;;;20.36;54.05
76260;BME280;65076;52.362;6.588;2023-07-08T01:54:40;101768.06;;;20.21;54.56
76260;BME280;65076;52.362;6.588;2023-07-08T01:57:08;101767.66;;;20.15;54.74
76260;BME280;65076;52.362;6.588;2023-07-08T01:59:37;101755.88;;;20.38;53.75
76260;BME280;65076;52.362;6.588;2023-07-08T02:02:05;101760.63;;;20.11;54.62
76260;BME280;65076;52.362;6.588;2023-07-08T02:04:32;101753.94;;;20.15;54.23
76260;BME280;65076;52.362;6.588;2023-07-08T02:07:01;101750.84;;;20.07;54.36
76260;BME280;65076;52.362;6.588;2023-07-08T02:09:31;101747.00;;;19.97;54.94
76260;BME280;65076;52.362;6.588;2023-07-08T02:11:59;101739.50;;;20.11;54.65
76260;BME280;65076;52.362;6.588;2023-07-08T02:14:27;101737.34;;;20.04;54.89
76260;BME280;65076;52.362;6.588;2023-07-08T02:16:55;101741.66;;;19.82;54.96
76260;BME280;65076;52.362;6.588;2023-07-08T02:19:24;101746.56;;;19.90;55.41
76260;BME280;65076;52.362;6.588;2023-07-08T02:21:52;101739.91;;;19.81;55.29
76260;BME280;65076;52.362;6.588;2023-07-08T02:24:20;101735.28;;;19.82;55.62
76260;BME280;65076;52.362;6.588;2023-07-08T02:26:50;101735.03;;;19.98;55.01
76260;BME280;65076;52.362;6.588;2023-07-08T02:29:18;101738.78;;;19.84;55.28
76260;BME280;65076;52.362;6.588;2023-07-08T02:31:46;101737.00;;;20.08;54.72
76260;BME280;65076;52.362;6.588;2023-07-08T02:34:14;101733.31;;;19.71;56.02
76260;BME280;65076;52.362;6.588;2023-07-08T02:36:42;101740.75;;;19.95;55.05
76260;BME280;65076;52.362;6.588;2023-07-08T02:39:10;101725.03;;;19.97;55.05
76260;BME280;65076;52.362;6.588;2023-07-08T02:41:38;101720.53;;;19.96;55.09
76260;BME280;65076;52.362;6.588;2023-07-08T02:44:07;101717.13;;;19.92;55.15
76260;BME280;65076;52.362;6.588;2023-07-08T02:46:35;101717.81;;;19.83;55.63
76260;BME280;65076;52.362;6.588;2023-07-08T02:49:03;101713.94;;;19.98;54.99
76260;BME280;65076;52.362;6.588;2023-07-08T02:51:32;101707.25;;;19.89;55.41
76260;BME280;65076;52.362;6.588;2023-07-08T02:54:00;101712.22;;;19.72;56.11
76260;BME280;65076;52.362;6.588;2023-07-08T02:56:28;101716.50;;;19.63;56.01
76260;BME280;65076;52.362;6.588;2023-07-08T02:58:56;101708.78;;;19.43;56.45
76260;BME280;65076;52.362;6.588;2023-07-08T03:01:25;101695.81;;;19.32;56.94
76260;BME280;65076;52.362;6.588;2023-07-08T03:03:54;101698.91;;;19.40;56.79
76260;BME280;65076;52.362;6.588;2023-07-08T03:06:23;101712.75;;;19.39;57.10
76260;BME280;65076;52.362;6.588;2023-07-08T03:08:52;101709.16;;;19.51;56.32
76260;BME280;65076;52.362;6.588;2023-07-08T03:11:19;101723.97;;;19.86;55.16
76260;BME280;65076;52.362;6.588;2023-07-08T03:13:47;101713.66;;;19.77;55.74
76260;BME280;65076;52.362;6.588;2023-07-08T03:16:16;101706.19;;;19.54;56.59
76260;BME280;65076;52.362;6.588;2023-07-08T03:18:45;101707.94;;;19.55;56.61
76260;BME280;65076;52.362;6.588;2023-07-08T03:21:14;101709.81;;;19.67;55.62
76260;BME280;65076;52.362;6.588;2023-07-08T03:23:44;101705.00;;;19.45;55.99
76260;BME280;65076;52.362;6.588;2023-07-08T03:26:13;101706.63;;;19.48;56.34
76260;BME280;65076;52.362;6.588;2023-07-08T03:28:43;101704.09;;;19.58;56.32
76260;BME280;65076;52.362;6.588;2023-07-08T03:31:11;101701.81;;;19.52;56.72
76260;BME280;65076;52.362;6.588;2023-07-08T03:33:39;101702.22;;;19.58;55.99
76260;BME280;65076;52.362;6.588;2023-07-08T03:36:11;101697.72;;;19.44;56.44
76260;BME280;65076;52.362;6.588;2023-07-08T03:38:50;101697.06;;;19.54;55.87
76260;BME280;65076;52.362;6.588;2023-07-08T03:41:19;101695.88;;;19.45;56.19
76260;BME280;65076;52.362;6.588;2023-07-08T03:43:48;101696.41;;;19.50;56.17
76260;BME280;65076;52.362;6.588;2023-07-08T03:46:20;101705.47;;;19.38;56.52
76260;BME280;65076;52.362;6.588;2023-07-08T03:48:50;101707.59;;;19.47;56.04
76260;BME280;65076;52.362;6.588;2023-07-08T03:51:22;101708.13;;;19.39;56.40
76260;BME280;65076;52.362;6.588;2023-07-08T03:53:52;101705.97;;;19.57;55.58
76260;BME280;65076;52.362;6.588;2023-07-08T03:56:20;101707.63;;;19.72;55.08
76260;BME280;65076;52.362;6.588;2023-07-08T03:58:49;101703.22;;;19.57;55.56
76260;BME280;65076;52.362;6.588;2023-07-08T04:01:18;101707.91;;;19.80;54.69
76260;BME280;65076;52.362;6.588;2023-07-08T04:03:48;101707.28;;;19.52;55.42
76260;BME280;65076;52.362;6.588;2023-07-08T04:06:18;101703.44;;;19.67;55.70
76260;BME280;65076;52.362;6.588;2023-07-08T04:08:49;101708.72;;;19.44;55.93
76260;BME280;65076;52.362;6.588;2023-07-08T04:11:19;101718.16;;;19.53;55.02
76260;BME280;65076;52.362;6.588;2023-07-08T04:13:49;101710.03;;;19.64;55.33
76260;BME280;65076;52.362;6.588;2023-07-08T04:16:21;101718.03;;;19.80;54.78
76260;BME280;65076;52.362;6.588;2023-07-08T04:18:54;101716.59;;;19.87;54.64
76260;BME280;65076;52.362;6.588;2023-07-08T04:21:24;101722.88;;;19.76;54.99
76260;BME280;65076;52.362;6.588;2023-07-08T04:23:54;101720.03;;;19.78;55.31
76260;BME280;65076;52.362;6.588;2023-07-08T04:26:22;101721.44;;;19.83;54.94
76260;BME280;65076;52.362;6.588;2023-07-08T04:28:50;101715.75;;;19.61;55.71
76260;BME280;65076;52.362;6.588;2023-07-08T04:31:18;101716.19;;;19.68;55.10
76260;BME280;65076;52.362;6.588;2023-07-08T04:33:46;101715.06;;;19.70;55.51
76260;BME280;65076;52.362;6.588;2023-07-08T04:36:14;101716.44;;;20.01;55.17
76260;BME280;65076;52.362;6.588;2023-07-08T04:38:43;101730.28;;;20.61;53.19
76260;BME280;65076;52.362;6.588;2023-07-08T04:41:14;101731.13;;;20.86;52.21
76260;BME280;65076;52.362;6.588;2023-07-08T04:43:42;101736.91;;;20.94;51.96
76260;BME280;65076;52.362;6.588;2023-07-08T04:46:18;101743.19;;;20.96;51.72
76260;BME280;65076;52.362;6.588;2023-07-08T04:48:49;101747.81;;;21.19;51.10
76260;BME280;65076;52.362;6.588;2023-07-08T04:51:17;101741.38;;;21.42;50.66
76260;BME280;65076;52.362;6.588;2023-07-08T04:53:45;101738.53;;;21.55;49.96
76260;BME280;65076;52.362;6.588;2023-07-08T04:56:15;101738.28;;;21.58;50.28
76260;BME280;65076;52.362;6.588;2023-07-08T04:58:43;101741.66;;;21.73;50.05
76260;BME280;65076;52.362;6.588;2023-07-08T05:01:11;101727.28;;;22.25;48.47
76260;BME280;65076;52.362;6.588;2023-07-08T05:03:39;101730.03;;;22.25;48.45
76260;BME280;65076;52.362;6.588;2023-07-08T05:06:07;101720.59;;;22.50;47.92
76260;BME280;65076;52.362;6.588;2023-07-08T05:08:35;101720.63;;;22.38;48.10
76260;BME280;65076;52.362;6.588;2023-07-08T05:11:03;101718.97;;;22.47;48.03
76260;BME280;65076;52.362;6.588;2023-07-08T05:13:32;101717.00;;;22.92;47.46
76260;BME280;65076;52.362;6.588;2023-07-08T05:16:00;101710.84;;;22.89;46.46
76260;BME280;65076;52.362;6.588;2023-07-08T05:18:28;101720.34;;;22.96;46.22
76260;BME280;65076;52.362;6.588;2023-07-08T05:20:56;101715.03;;;22.72;46.96
76260;BME280;65076;52.362;6.588;2023-07-08T05:23:25;101709.13;;;22.11;48.54
76260;BME280;65076;52.362;6.588;2023-07-08T05:25:53;101707.84;;;21.93;49.53
76260;BME280;65076;52.362;6.588;2023-07-08T05:28:21;101718.66;;;22.07;49.33
76260;BME280;65076;52.362;6.588;2023-07-08T05:30:53;101712.28;;;22.07;49.54
76260;BME280;65076;52.362;6.588;2023-07-08T05:33:23;101712.63;;;21.80;50.05
76260;BME280;65076;52.362;6.588;2023-07-08T05:35:52;101709.00;;;21.90;50.02
76260;BME280;65076;52.362;6.588;2023-07-08T05:38:21;101713.13;;;21.85;49.78
76260;BME280;65076;52.362;6.588;2023-07-08T05:40:49;101713.25;;;21.15;51.83
76260;BME280;65076;52.362;6.588;2023-07-08T05:43:18;101709.22;;;21.54;51.16
76260;BME280;65076;52.362;6.588;2023-07-08T05:45:46;101710.59;;;21.60;50.86
76260;BME280;65076;52.362;6.588;2023-07-08T05:48:32;101714.09;;;21.73;51.01
76260;BME280;65076;52.362;6.588;2023-07-08T05:51:00;101704.25;;;21.81;51.13
76260;BME280;65076;52.362;6.588;2023-07-08T05:53:28;101712.25;;;22.29;49.80
76260;BME280;65076;52.362;6.588;2023-07-08T05:55:56;101709.41;;;22.62;48.23
76260;BME280;65076;52.362;6.588;2023-07-08T05:58:24;101712.84;;;23.18;47.00
76260;BME280;65076;52.362;6.588;2023-07-08T06:00:57;101710.69;;;23.43;45.73
76260;BME280;65076;52.362;6.588;2023-07-08T06:03:26;101710.66;;;23.84;45.71
76260;BME280;65076;52.362;6.588;2023-07-08T06:05:55;101714.66;;;24.41;43.79
76260;BME280;65076;52.362;6.588;2023-07-08T06:08:24;101712.53;;;24.54;44.10
76260;BME280;65076;52.362;6.588;2023-07-08T06:10:52;101713.84;;;24.60;43.44
76260;BME280;65076;52.362;6.588;2023-07-08T06:13:20;101705.13;;;24.83;42.87
76260;BME280;65076;52.362;6.588;2023-07-08T06:15:50;101703.09;;;25.24;41.59
76260;BME280;65076;52.362;6.588;2023-07-08T06:18:18;101694.22;;;25.01;42.89
76260;BME280;65076;52.362;6.588;2023-07-08T06:20:52;101694.31;;;25.48;41.96
76260;BME280;65076;52.362;6.588;2023-07-08T06:23:22;101689.03;;;25.45;41.43
76260;BME280;65076;52.362;6.588;2023-07-08T06:25:51;101695.06;;;25.87;40.71
76260;BME280;65076;52.362;6.588;2023-07-08T06:28:20;101700.06;;;25.83;40.46
76260;BME280;65076;52.362;6.588;2023-07-08T06:30:49;101703.59;;;26.22;39.70
76260;BME280;65076;52.362;6.588;2023-07-08T06:33:17;101708.22;;;26.94;38.85
76260;BME280;65076;52.362;6.588;2023-07-08T06:35:45;101705.72;;;25.91;40.30
76260;BME280;65076;52.362;6.588;2023-07-08T06:38:13;101700.03;;;26.92;38.71
76260;BME280;65076;52.362;6.588;2023-07-08T06:40:42;101696.06;;;26.32;39.00
76260;BME280;65076;52.362;6.588;2023-07-08T06:43:10;101691.44;;;26.86;39.22
76260;BME280;65076;52.362;6.588;2023-07-08T06:45:39;101693.25;;;26.77;38.85
76260;BME280;65076;52.362;6.588;2023-07-08T06:48:07;101687.50;;;26.88;38.70
76260;BME280;65076;52.362;6.588;2023-07-08T06:50:37;101690.81;;;26.74;38.85
76260;BME280;65076;52.362;6.588;2023-07-08T06:53:06;101684.84;;;26.24;40.18
76260;BME280;65076;52.362;6.588;2023-07-08T06:55:34;101682.81;;;25.89;40.81
76260;BME280;65076;52.362;6.588;2023-07-08T06:58:04;101686.00;;;26.49;38.93
76260;BME280;65076;52.362;6.588;2023-07-08T07:00:34;101682.00;;;27.14;38.02
76260;BME280;65076;52.362;6.588;2023-07-08T07:03:02;101672.47;;;26.64;38.69
76260;BME280;65076;52.362;6.588;2023-07-08T07:05:31;101681.66;;;27.35;37.73
76260;BME280;65076;52.362;6.588;2023-07-08T07:07:59;101688.53;;;27.74;37.08
76260;BME280;65076;52.362;6.588;2023-07-08T07:10:27;101689.13;;;27.34;36.96
76260;BME280;65076;52.362;6.588;2023-07-08T07:12:55;101697.22;;;28.81;34.42
76260;BME280;65076;52.362;6.588;2023-07-08T07:15:24;101686.78;;;28.99;34.06
76260;BME280;65076;52.362;6.588;2023-07-08T07:17:52;101687.69;;;28.08;35.64
76260;BME280;65076;52.362;6.588;2023-07-08T07:20:20;101698.47;;;28.45;35.49
76260;BME280;65076;52.362;6.588;2023-07-08T07:22:48;101685.47;;;28.61;34.95
76260;BME280;65076;52.362;6.588;2023-07-08T07:25:17;101676.16;;;29.11;34.25
76260;BME280;65076;52.362;6.588;2023-07-08T07:27:45;101680.69;;;28.96;34.61
76260;BME280;65076;52.362;6.588;2023-07-08T07:30:14;101699.00;;;28.48;35.53
76260;BME280;65076;52.362;6.588;2023-07-08T07:32:44;101687.63;;;29.65;33.14
76260;BME280;65076;52.362;6.588;2023-07-08T07:35:13;101681.41;;;29.46;33.63
76260;BME280;65076;52.362;6.588;2023-07-08T07:37:43;101679.56;;;30.33;32.66
76260;BME280;65076;52.362;6.588;2023-07-08T07:40:12;101681.22;;;30.19;32.42
76260;BME280;65076;52.362;6.588;2023-07-08T07:42:43;101678.16;;;30.37;32.75
76260;BME280;65076;52.362;6.588;2023-07-08T07:45:13;101677.25;;;30.06;32.67
76260;BME280;65076;52.362;6.588;2023-07-08T07:47:43;101680.31;;;29.64;34.27
76260;BME280;65076;52.362;6.588;2023-07-08T07:50:11;101677.44;;;30.74;32.96
76260;BME280;65076;52.362;6.588;2023-07-08T07:52:39;101675.56;;;29.97;34.02
76260;BME280;65076;52.362;6.588;2023-07-08T07:55:08;101683.63;;;31.52;32.07
76260;BME280;65076;52.362;6.588;2023-07-08T07:57:36;101686.28;;;31.83;31.04
76260;BME280;65076;52.362;6.588;2023-07-08T08:00:05;101685.81;;;31.42;30.83
76260;BME280;65076;52.362;6.588;2023-07-08T08:02:35;101682.44;;;31.70;30.65
76260;BME280;65076;52.362;6.588;2023-07-08T08:05:05;101684.28;;;30.71;32.68
76260;BME280;65076;52.362;6.588;2023-07-08T08:07:33;101682.16;;;32.38;29.94
76260;BME280;65076;52.362;6.588;2023-07-08T08:10:02;101680.69;;;31.83;31.11
76260;BME280;65076;52.362;6.588;2023-07-08T08:12:31;101675.44;;;32.68;30.35
76260;BME280;65076;52.362;6.588;2023-07-08T08:15:17;101682.66;;;32.27;30.72
76260;BME280;65076;52.362;6.588;2023-07-08T08:17:45;101680.81;;;31.52;31.35
76260;BME280;65076;52.362;6.588;2023-07-08T08:20:18;101685.31;;;31.24;32.00
76260;BME280;65076;52.362;6.588;2023-07-08T08:22:46;101693.06;;;31.89;30.63
76260;BME280;65076;52.362;6.588;2023-07-08T08:25:15;101691.41;;;31.42;31.67
76260;BME280;65076;52.362;6.588;2023-07-08T08:27:46;101673.78;;;32.74;29.77
76260;BME280;65076;52.362;6.588;2023-07-08T08:30:14;101680.63;;;31.39;32.12
76260;BME280;65076;52.362;6.588;2023-07-08T08:32:42;101673.47;;;31.74;30.93
76260;BME280;65076;52.362;6.588;2023-07-08T08:35:10;101675.47;;;30.83;32.10
76260;BME280;65076;52.362;6.588;2023-07-08T08:37:39;101683.06;;;31.20;32.42
76260;BME280;65076;52.362;6.588;2023-07-08T08:40:12;101685.75;;;31.50;31.68
76260;BME280;65076;52.362;6.588;2023-07-08T08:42:51;101677.16;;;32.19;31.00
76260;BME280;65076;52.362;6.588;2023-07-08T08:45:27;101678.88;;;32.34;30.32
76260;BME280;65076;52.362;6.588;2023-07-08T08:47:59;101671.38;;;33.13;28.64
76260;BME280;65076;52.362;6.588;2023-07-08T08:50:32;101673.69;;;32.67;29.73
76260;BME280;65076;52.362;6.588;2023-07-08T08:53:10;101670.31;;;32.93;29.21
76260;BME280;65076;52.362;6.588;2023-07-08T08:55:40;101675.16;;;33.20;29.15
76260;BME280;65076;52.362;6.588;2023-07-08T08:58:20;101673.25;;;33.49;28.94
76260;BME280;65076;52.362;6.588;2023-07-08T09:00:58;101674.97;;;33.78;27.92
76260;BME280;65076;52.362;6.588;2023-07-08T09:03:39;101672.63;;;33.81;28.11
76260;BME280;65076;52.362;6.588;2023-07-08T09:06:14;101660.56;;;33.81;28.55
76260;BME280;65076;52.362;6.588;2023-07-08T09:08:48;101661.19;;;33.55;29.60
76260;BME280;65076;52.362;6.588;2023-07-08T09:11:37;101665.84;;;34.03;28.07
76260;BME280;65076;52.362;6.588;2023-07-08T09:14:15;101669.41;;;33.29;29.33
76260;BME280;65076;52.362;6.588;2023-07-08T09:16:53;101670.47;;;33.28;28.44
76260;BME280;65076;52.362;6.588;2023-07-08T09:19:30;101659.09;;;34.26;27.83
76260;BME280;65076;52.362;6.588;2023-07-08T09:22:05;101662.69;;;32.87;29.84
76260;BME280;65076;52.362;6.588;2023-07-08T09:24:45;101655.41;;;33.63;29.34
76260;BME280;65076;52.362;6.588;2023-07-08T09:27:20;101658.13;;;34.12;27.70
76260;BME280;65076;52.362;6.588;2023-07-08T09:29:48;101658.34;;;33.76;28.66
76260;BME280;65076;52.362;6.588;2023-07-08T09:32:18;101660.47;;;34.43;27.49
76260;BME280;65076;52.362;6.588;2023-07-08T09:34:51;101664.78;;;32.64;30.14
76260;BME280;65076;52.362;6.588;2023-07-08T09:37:25;101671.25;;;33.43;29.74
76260;BME280;65076;52.362;6.588;2023-07-08T09:39:59;101662.25;;;34.64;27.88
76260;BME280;65076;52.362;6.588;2023-07-08T09:42:33;101665.06;;;34.64;26.96
76260;BME280;65076;52.362;6.588;2023-07-08T09:45:10;101675.59;;;35.95;25.62
76260;BME280;65076;52.362;6.588;2023-07-08T09:47:40;101668.03;;;35.89;25.28
76260;BME280;65076;52.362;6.588;2023-07-08T09:50:17;101664.28;;;36.21;25.87
76260;BME280;65076;52.362;6.588;2023-07-08T09:52:47;101659.31;;;35.97;25.15
76260;BME280;65076;52.362;6.588;2023-07-08T09:55:18;101659.13;;;35.00;26.55
76260;BME280;65076;52.362;6.588;2023-07-08T09:57:47;101656.38;;;35.26;27.05
76260;BME280;65076;52.362;6.588;2023-07-08T10:00:19;101656.09;;;35.80;26.08
76260;BME280;65076;52.362;6.588;2023-07-08T10:02:56;101660.47;;;35.37;27.16
76260;BME280;65076;52.362;6.588;2023-07-08T10:05:30;101656.69;;;36.02;26.24
76260;BME280;65076;52.362;6.588;2023-07-08T10:08:08;101659.38;;;35.18;27.32
76260;BME280;65076;52.362;6.588;2023-07-08T10:10:42;101660.16;;;36.10;26.58
76260;BME280;65076;52.362;6.588;2023-07-08T10:13:17;101661.78;;;36.44;25.87
76260;BME280;65076;52.362;6.588;2023-07-08T10:15:54;101670.13;;;34.34;28.54
76260;BME280;65076;52.362;6.588;2023-07-08T10:18:28;101666.50;;;35.01;27.04
76260;BME280;65076;52.362;6.588;2023-07-08T10:21:03;101672.84;;;34.62;28.34
76260;BME280;65076;52.362;6.588;2023-07-08T10:23:47;101666.75;;;35.19;28.00
76260;BME280;65076;52.362;6.588;2023-07-08T10:26:26;101670.19;;;35.80;26.79
76260;BME280;65076;52.362;6.588;2023-07-08T10:29:10;101665.97;;;36.29;25.85
76260;BME280;65076;52.362;6.588;2023-07-08T10:31:51;101660.34;;;36.29;25.85
76260;BME280;65076;52.362;6.588;2023-07-08T10:34:36;101661.66;;;36.71;25.36
76260;BME280;65076;52.362;6.588;2023-07-08T10:37:22;101646.84;;;37.88;23.20
76260;BME280;65076;52.362;6.588;2023-07-08T10:40:18;101657.41;;;37.49;23.63
76260;BME280;65076;52.362;6.588;2023-07-08T10:43:15;101649.66;;;38.42;23.09
76260;BME280;65076;52.362;6.588;2023-07-08T10:46:01;101650.75;;;36.81;25.50
76260;BME280;65076;52.362;6.588;2023-07-08T10:48:58;101649.72;;;36.31;25.32
76260;BME280;65076;52.362;6.588;2023-07-08T10:52:01;101644.06;;;36.75;25.51
76260;BME280;65076;52.362;6.588;2023-07-08T10:55:03;101643.53;;;36.91;25.92
76260;BME280;65076;52.362;6.588;2023-07-08T10:58:13;101644.75;;;37.33;24.72
76260;BME280;65076;52.362;6.588;2023-07-08T11:01:04;101628.25;;;38.16;23.05
76260;BME280;65076;52.362;6.588;2023-07-08T11:06:44;101637.97;;;36.34;25.46
76260;BME280;65076;52.362;6.588;2023-07-08T11:09:24;101632.44;;;38.14;23.51
76260;BME280;65076;52.362;6.588;2023-07-08T11:12:00;101637.56;;;37.62;24.40
76260;BME280;65076;52.362;6.588;2023-07-08T11:14:44;101623.44;;;38.35;23.86
76260;BME280;65076;52.362;6.588;2023-07-08T11:17:20;101627.72;;;38.26;24.12
76260;BME280;65076;52.362;6.588;2023-07-08T11:19:58;101625.66;;;37.79;23.83
76260;BME280;65076;52.362;6.588;2023-07-08T11:22:31;101620.50;;;37.69;24.84
76260;BME280;65076;52.362;6.588;2023-07-08T11:25:07;101618.50;;;38.49;23.04
76260;BME280;65076;52.362;6.588;2023-07-08T11:27:46;101632.66;;;38.31;23.83
76260;BME280;65076;52.362;6.588;2023-07-08T11:30:23;101623.13;;;37.70;22.57
76260;BME280;65076;52.362;6.588;2023-07-08T11:32:59;101614.34;;;38.63;22.49
76260;BME280;65076;52.362;6.588;2023-07-08T11:35:36;101610.59;;;39.22;21.23
76260;BME280;65076;52.362;6.588;2023-07-08T11:38:12;101620.84;;;38.34;21.35
76260;BME280;65076;52.362;6.588;2023-07-08T11:40:51;101617.25;;;38.27;21.39
76260;BME280;65076;52.362;6.588;2023-07-08T11:43:23;101609.09;;;38.00;22.06
76260;BME280;65076;52.362;6.588;2023-07-08T11:45:56;101620.66;;;37.56;22.50
76260;BME280;65076;52.362;6.588;2023-07-08T11:48:27;101605.00;;;37.78;23.20
76260;BME280;65076;52.362;6.588;2023-07-08T11:51:04;101603.94;;;38.75;22.41
76260;BME280;65076;52.362;6.588;2023-07-08T11:53:38;101599.66;;;38.25;22.70
76260;BME280;65076;52.362;6.588;2023-07-08T11:56:21;101593.94;;;38.91;19.43
76260;BME280;65076;52.362;6.588;2023-07-08T11:58:58;101596.13;;;38.29;21.47
76260;BME280;65076;52.362;6.588;2023-07-08T12:01:39;101585.94;;;40.04;19.36
76260;BME280;65076;52.362;6.588;2023-07-08T12:04:28;101586.38;;;39.85;18.94
76260;BME280;65076;52.362;6.588;2023-07-08T12:07:17;101581.50;;;38.92;19.36
76260;BME280;65076;52.362;6.588;2023-07-08T12:09:57;101591.00;;;38.97;19.47
76260;BME280;65076;52.362;6.588;2023-07-08T12:12:31;101592.56;;;39.35;19.24
76260;BME280;65076;52.362;6.588;2023-07-08T12:15:11;101591.69;;;39.81;18.42
76260;BME280;65076;52.362;6.588;2023-07-08T12:17:44;101583.97;;;40.05;18.75
76260;BME280;65076;52.362;6.588;2023-07-08T12:20:19;101590.69;;;39.64;18.81
76260;BME280;65076;52.362;6.588;2023-07-08T12:22:50;101584.38;;;39.27;19.16
76260;BME280;65076;52.362;6.588;2023-07-08T12:25:19;101585.81;;;40.11;18.90
76260;BME280;65076;52.362;6.588;2023-07-08T12:27:49;101572.47;;;39.48;18.97
76260;BME280;65076;52.362;6.588;2023-07-08T12:30:17;101569.72;;;39.18;19.92
76260;BME280;65076;52.362;6.588;2023-07-08T12:32:49;101569.13;;;39.86;18.51
76260;BME280;65076;52.362;6.588;2023-07-08T12:35:22;101565.88;;;40.91;18.12
76260;BME280;65076;52.362;6.588;2023-07-08T12:37:58;101561.56;;;40.43;18.22
76260;BME280;65076;52.362;6.588;2023-07-08T12:40:30;101561.91;;;40.07;19.07
76260;BME280;65076;52.362;6.588;2023-07-08T12:42:59;101564.81;;;38.72;19.71
76260;BME280;65076;52.362;6.588;2023-07-08T12:45:29;101571.03;;;40.09;18.17
76260;BME280;65076;52.362;6.588;2023-07-08T12:47:59;101568.56;;;40.12;18.02
76260;BME280;65076;52.362;6.588;2023-07-08T12:50:28;101567.66;;;39.25;19.39
76260;BME280;65076;52.362;6.588;2023-07-08T12:52:56;101578.53;;;40.15;17.49
76260;BME280;65076;52.362;6.588;2023-07-08T12:55:26;101576.22;;;40.00;18.83
76260;BME280;65076;52.362;6.588;2023-07-08T12:57:54;101566.09;;;40.04;18.93
76260;BME280;65076;52.362;6.588;2023-07-08T13:00:26;101562.00;;;39.60;17.52
76260;BME280;65076;52.362;6.588;2023-07-08T13:03:01;101572.56;;;39.30;18.93
76260;BME280;65076;52.362;6.588;2023-07-08T13:05:33;101567.66;;;38.72;18.89
76260;BME280;65076;52.362;6.588;2023-07-08T13:08:04;101562.56;;;38.92;18.76
76260;BME280;65076;52.362;6.588;2023-07-08T13:10:34;101564.78;;;39.95;17.78
76260;BME280;65076;52.362;6.588;2023-07-08T13:13:06;101562.53;;;40.09;18.40
76260;BME280;65076;52.362;6.588;2023-07-08T13:15:41;101565.50;;;40.02;18.86
76260;BME280;65076;52.362;6.588;2023-07-08T13:18:15;101570.53;;;40.12;18.00